Alva, Florida
Current Conditions -  °F | °C
As of 6:53 PM on Saturday 25 Oct 2014 (Local Time) from KRSW Reporting Station
Clear Clear  
Wind Chill: 76°   Ceiling: Unl
Heat Index: 76°   Visibility: 10mi
Dew Point: 56°   Wind: 5mph
Humidity: 50%   Direction: 350°N
Pressure: 29.93"   Gusts: NA
Location:  26.72°N, 81.61°W
Report Text: KRSW 252253Z 35004KT 10SM CLR 24/13 A2993 RMK AO2 SLP131 T02440133
Loading
Personal Weather Stations






























Interactive Weather Map
Tropical Storm Tracking
New forecast layout! Learn more

10-Day Weather Forecast

Advertisements
Track Severe Weather on mobile